Chesterfield, MO

3:12 PM CDT on September 02, 2014 (GMT -0500)
Spirit Of Saint Louis | Change Station
CLOSE
Current Station
Airport
Location: Spirit of St Louis,
Elevation: 463 ft
Nearby Weather Stations

Elev 463 ft 38.66 °N, 90.66 °W | Updated 18 minutes ago

Mostly Cloudy
Mostly Cloudy
81 °F
Feels Like 84 °F
N
7
Wind Variable Wind from West

Today
High -- | Low -- °F
--% Chance of Precip.
Yesterday
High -- | Low -- °F
Precip. -- in
6:32 AM 7:31 PM
First Quarter, 54% visible
Pressure 29.94 in
Visibility 10.0 miles
Clouds Scattered Clouds 1500 ft
Mostly Cloudy 4200 ft
Heat Index 84 °F
Dew Point 69 °F
Humidity 67%
Rainfall 0.23 in
Snow Depth Not available.
UV 4 out of 12
Pollen 6.50 out of 12
Ozone Good
PM2.5 Good
Flu Activity Not available.
METAR KSUS 021954Z 28006KT 10SM SCT015 BKN042 27/21 A2996 RMK AO2 SLP138 T02720206

More Conditions Fewer Conditions

Pressure 29.94 in
Visibility 10.0 miles
Clouds Scattered Clouds 1500 ft
Mostly Cloudy 4200 ft
Heat Index 84 °F
Dew Point 69 °F
Humidity 67%
Rainfall 0.23 in
Snow Depth Not available.
UV 4 out of 12
Pollen 6.50 out of 12
Ozone Good
PM2.5 Good
Flu Activity Not available.
METAR KSUS 021954Z 28006KT 10SM SCT015 BKN042 27/21 A2996 RMK AO2 SLP138 T02720206

More Conditions Fewer Conditions

10-Day Weather Forecast

Almanac

Astronomy

Sep. 02, 2014 Rise Set
Actual Time 6:32 AM CDT 7:31 PM CDT
Civil Twilight 6:05 AM CDT 7:58 PM CDT
Nautical Twilight 5:33 AM CDT 8:30 PM CDT
Astronomical Twilight 4:59 AM CDT 9:03 PM CDT
Moon 2:12 PM CDT No Moon Set
Length of Visible Light 13h 52m
Length of Day
12h 58m
Tomorrow will be 2m 24s shorter.
First Quarter, 54% of the Moon is Illuminated
Today
First Quarter
Sep 8
Full
Sep 15
Last Quarter
Sep 24
New
Oct 1
First Quarter

Today's Extremes

State Highs State Lows

Community

WunderPhotos

Upload Photos

1,749,752 photos uploaded!

WunderBlogs® & News

By Dr. Jeff Masters
Director of Meteorology, Weather Underground
By Kari Strenfel
Meteorologist, Weather Underground
By Christopher C. Burt
Weather Historian, Weather Underground
September 2, 2014
September 2, 2014
September 2, 2014

Nearby

Air Quality

  Air Quality AQ Index Pollutant
Yesterday Good
OZONE
Yesterday Good
PM2.5
Current Good
PM2.5
Current Good
OZONE
Tuesday Moderate
OZONE
Tuesday Good
PM2.5

Snow Depth

Station Depth Elevation
No new snow has been reported.

Earthquake Activity

City Distance Mag. Time & Date
No recent earthquake activity has been reported nearby.
Minimum magnitude displayed is 2.5.

Coastal Water Temperatures

Place Temperature
No Stations Reporting

Nearby Weather Stations